Погода Горощинона неделю

Тверская область, Россия

24 - 30 мая
  • 24мая
    Сегодня
    +7°
    +22°
    Практически безоблачно
    ВремяПогодаТемператураВлажностьДавлениеВетер, м/сВероятность осадков
    00:00Небольшая облачность+10°C61 %758 мм2.4 м/с2 %
    03:00Ясно и безоблачно+7°C67 %758 мм2.0 м/с2 %
    06:00Ясно и безоблачно+9°C66 %759 мм2.2 м/с2 %
    09:00Ясно и безоблачно+18°C51 %760 мм2.0 м/с2 %
    12:00Ясно и безоблачно+21°C36 %760 мм1.4 м/с2 %
    15:00Практически безоблачно+22°C35 %759 мм2.1 м/с2 %
    18:00Ясно и безоблачно+22°C38 %758 мм2.3 м/с2 %
    21:00Ясно и безоблачно+16°C54 %758 мм2.6 м/с2 %
  • 25мая
    Суббота
    +9°
    +24°
    Ясно и безоблачно
    ВремяПогодаТемператураВлажностьДавлениеВетер, м/сВероятность осадков
    00:00Ясно и безоблачно+10°C68 %758 мм2.4 м/с2 %
    03:00Ясно и безоблачно+8°C62 %758 мм3.1 м/с2 %
    06:00Ясно и безоблачно+9°C67 %758 мм2.3 м/с2 %
    09:00Ясно и безоблачно+18°C47 %757 мм2.9 м/с2 %
    12:00Ясно и безоблачно+21°C35 %757 мм2.7 м/с2 %
    15:00Ясно и безоблачно+23°C33 %755 мм3.2 м/с2 %
    18:00Ясно и безоблачно+23°C36 %754 мм2.9 м/с2 %
    21:00Ясно и безоблачно+17°C57 %753 мм2.2 м/с2 %
  • 26мая
    Воскресенье
    +7°
    +22°
    Пасмурно, дождь
    ВремяПогодаТемператураВлажностьДавлениеВетер, м/сВероятность осадков
    00:00Ясно и безоблачно+12°C64 %753 мм2.5 м/с2 %
    03:00Ясно и безоблачно+10°C72 %753 мм2.5 м/с2 %
    06:00Ясно и безоблачно+12°C73 %753 мм2.5 м/с4 %
    09:00Облачно с прояснениями+19°C63 %753 мм2.5 м/с16 %
    12:00Небольшая облачность, возможен дождь с грозой+21°C64 %754 мм2.8 м/с53 %
    15:00Пасмурно, дождь+22°C64 %754 мм2.4 м/с68 %
    18:00Небольшая облачность и лёгкий дождик+22°C54 %754 мм3.0 м/с40 %
    21:00Небольшая облачность+17°C60 %755 мм2.9 м/с13 %
  • 27мая
    Понедельник
    +7°
    +22°
    Небольшая облачность
    ВремяПогодаТемператураВлажностьДавлениеВетер, м/сВероятность осадков
    00:00Практически безоблачно+12°C59 %756 мм3.6 м/с2 %
    03:00Ясно и безоблачно+8°C60 %757 мм2.8 м/с2 %
    06:00Ясно и безоблачно+9°C68 %758 мм2.7 м/с2 %
    09:00Ясно и безоблачно+16°C53 %758 мм3.0 м/с2 %
    12:00Практически безоблачно+20°C50 %758 мм3.1 м/с2 %
    15:00Небольшая облачность+21°C44 %757 мм2.5 м/с2 %
    18:00Ясно и безоблачно+21°C44 %757 мм2.1 м/с2 %
    21:00Ясно и безоблачно+16°C61 %756 мм2.1 м/с2 %
  • 28мая
    Вторник
    +10°
    +25°
    Ясно и безоблачно
    ВремяПогодаТемператураВлажностьДавлениеВетер, м/сВероятность осадков
    00:00Ясно и безоблачно+11°C61 %756 мм2.5 м/с2 %
    03:00Ясно и безоблачно+8°C70 %756 мм2.1 м/с2 %
    06:00Ясно и безоблачно+10°C71 %756 мм2.2 м/с2 %
    09:00Ясно и безоблачно+19°C54 %756 мм1.9 м/с2 %
    12:00Ясно и безоблачно+23°C42 %756 мм2.0 м/с2 %
    15:00Ясно и безоблачно+24°C40 %755 мм1.8 м/с4 %
    18:00Ясно и безоблачно+24°C42 %754 мм1.4 м/с3 %
    21:00Ясно и безоблачно+19°C54 %754 мм2.9 м/с2 %
Мы используем cookies
Соглашаюсь